Time;durP1;ratioP1;P1;durP2;ratioP2;P2;SDS_P1;SDS_P2;PMS_P1;PMS_P2;Temp;Humidity;BMP_temperature;BMP_pressure;BME280_temperature;BME280_humidity;BME280_pressure;Samples;Min_cycle;Max_cycle;Signal;HPM_P1;HPM_P2
2022/01/09 00:00:11;;;;;;;8.48;5.65;;;3.90;70.60;;;;;;5061993;28;20029;-75
2022/01/09 00:02:37;;;;;;;9.05;4.53;;;3.90;70.70;;;;;;5054238;28;20104;-76
2022/01/09 00:05:03;;;;;;;7.75;4.40;;;3.90;70.80;;;;;;5036583;28;20034;-75
2022/01/09 00:07:29;;;;;;;7.88;4.63;;;4.00;70.80;;;;;;5050438;28;20039;-76
2022/01/09 00:09:56;;;;;;;8.43;4.35;;;4.00;70.70;;;;;;5053478;28;20484;-75
2022/01/09 00:12:23;;;;;;;9.25;4.45;;;4.20;70.80;;;;;;5052999;28;20461;-75
2022/01/09 00:14:49;;;;;;;9.13;5.10;;;4.00;70.60;;;;;;5052688;28;20452;-75
2022/01/09 00:17:15;;;;;;;7.10;4.18;;;4.00;70.80;;;;;;5052098;28;20104;-76
2022/01/09 00:19:40;;;;;;;7.28;4.25;;;4.00;70.80;;;;;;5053792;28;20025;-76
2022/01/09 00:22:07;;;;;;;7.30;4.20;;;4.00;70.90;;;;;;5052975;28;20025;-76
2022/01/09 00:24:33;;;;;;;5.50;3.70;;;4.00;71.00;;;;;;5051253;28;20021;-76
2022/01/09 00:26:58;;;;;;;8.68;4.05;;;4.00;71.00;;;;;;5052278;28;20040;-76
2022/01/09 00:29:24;;;;;;;6.70;3.95;;;4.10;71.10;;;;;;5058148;28;20120;-76
2022/01/09 00:31:50;;;;;;;8.38;4.18;;;4.00;71.20;;;;;;5055417;28;20469;-76
2022/01/09 00:34:15;;;;;;;8.52;4.03;;;4.00;71.30;;;;;;5053174;28;20033;-76
2022/01/09 00:36:41;;;;;;;8.15;3.90;;;4.10;71.50;;;;;;5052698;28;20036;-75
2022/01/09 00:39:07;;;;;;;5.70;3.25;;;4.00;71.40;;;;;;5053100;28;20036;-75
2022/01/09 00:41:33;;;;;;;6.50;3.58;;;4.10;71.40;;;;;;5051965;28;20115;-75
2022/01/09 00:43:58;;;;;;;6.10;3.58;;;4.10;71.50;;;;;;5058243;28;20054;-76
2022/01/09 00:46:24;;;;;;;5.85;3.75;;;4.10;71.60;;;;;;5073076;28;20029;-75
2022/01/09 00:48:49;;;;;;;6.20;3.55;;;4.10;71.70;;;;;;5054155;28;20029;-76
2022/01/09 00:51:15;;;;;;;7.50;4.35;;;4.10;71.70;;;;;;5052741;28;20032;-75
2022/01/09 00:53:41;;;;;;;5.50;3.63;;;4.10;71.90;;;;;;5052027;28;20029;-76
2022/01/09 00:56:06;;;;;;;4.72;2.83;;;4.10;71.90;;;;;;5051797;28;20120;-76
2022/01/09 00:58:32;;;;;;;3.67;2.63;;;4.10;71.90;;;;;;5053823;28;20016;-76
2022/01/09 01:00:59;;;;;;;4.25;2.63;;;4.10;71.90;;;;;;5059190;28;20032;-76
2022/01/09 01:03:25;;;;;;;2.95;2.17;;;4.10;72.00;;;;;;5053448;28;20090;-76
2022/01/09 01:05:51;;;;;;;4.97;2.53;;;4.20;72.10;;;;;;5060652;28;20029;-76
2022/01/09 01:08:18;;;;;;;3.50;2.60;;;4.20;72.30;;;;;;5059379;28;20049;-76
2022/01/09 01:10:44;;;;;;;4.82;2.20;;;4.20;72.30;;;;;;5052815;28;20041;-76
2022/01/09 01:13:09;;;;;;;3.00;2.05;;;4.20;72.20;;;;;;5052159;28;20378;-75
2022/01/09 01:15:35;;;;;;;2.97;2.20;;;4.20;72.40;;;;;;5052716;28;20029;-76
2022/01/09 01:18:01;;;;;;;4.72;2.22;;;4.20;72.50;;;;;;5056555;28;20025;-76
2022/01/09 01:20:27;;;;;;;3.95;2.28;;;4.20;72.60;;;;;;5052743;28;20082;-76
2022/01/09 01:22:53;;;;;;;2.35;1.95;;;4.20;72.70;;;;;;5051791;28;20043;-76
2022/01/09 01:25:20;;;;;;;3.67;2.05;;;4.20;72.70;;;;;;5052708;28;20021;-76
2022/01/09 01:27:46;;;;;;;3.17;2.40;;;4.20;72.80;;;;;;5047169;28;20036;-75
2022/01/09 01:30:13;;;;;;;2.30;2.00;;;4.30;72.90;;;;;;5051301;28;20036;-75
2022/01/09 01:32:39;;;;;;;2.00;1.80;;;4.30;72.90;;;;;;5046107;28;20094;-76
2022/01/09 01:35:05;;;;;;;2.00;1.80;;;4.30;73.00;;;;;;5051680;28;20497;-76
2022/01/09 01:37:31;;;;;;;4.65;2.00;;;4.30;73.10;;;;;;5051672;28;20021;-75
2022/01/09 01:39:57;;;;;;;3.55;2.00;;;4.30;73.10;;;;;;5052695;28;20029;-75
2022/01/09 01:42:22;;;;;;;1.73;1.63;;;4.40;73.20;;;;;;5052050;28;20041;-75
2022/01/09 01:44:50;;;;;;;1.90;1.80;;;4.40;73.30;;;;;;5051182;28;20036;-75
2022/01/09 01:47:19;;;;;;;1.70;1.60;;;4.40;73.50;;;;;;5050128;28;20033;-76
2022/01/09 01:49:46;;;;;;;2.33;1.90;;;4.40;73.20;;;;;;5051100;28;20435;-76
2022/01/09 01:52:15;;;;;;;2.00;1.80;;;4.40;73.20;;;;;;5052282;28;20083;-75
2022/01/09 01:54:42;;;;;;;2.00;1.80;;;4.40;73.40;;;;;;5052575;28;20061;-75
2022/01/09 01:57:09;;;;;;;1.95;1.75;;;4.40;73.50;;;;;;5060435;28;20029;-75
2022/01/09 01:59:35;;;;;;;2.22;2.03;;;4.50;73.50;;;;;;5051403;28;20025;-76
2022/01/09 02:02:00;;;;;;;4.63;2.30;;;4.50;73.30;;;;;;5054296;28;20021;-76
2022/01/09 02:04:26;;;;;;;2.78;1.92;;;4.40;73.50;;;;;;5051454;28;20017;-76
2022/01/09 02:06:53;;;;;;;1.90;1.80;;;4.50;73.50;;;;;;5052341;28;20036;-75
2022/01/09 02:09:19;;;;;;;2.13;1.92;;;4.40;73.80;;;;;;5049982;28;20041;-75
2022/01/09 02:11:45;;;;;;;1.80;1.70;;;4.50;74.00;;;;;;5050675;28;20048;-74
2022/01/09 02:14:11;;;;;;;2.72;1.83;;;4.40;73.80;;;;;;5052215;28;20051;-74
2022/01/09 02:16:42;;;;;;;1.80;1.70;;;4.40;73.70;;;;;;5051574;28;20444;-75
2022/01/09 02:19:11;;;;;;;2.08;1.70;;;4.40;74.00;;;;;;5050807;28;20028;-74
2022/01/09 02:21:44;;;;;;;2.10;1.90;;;4.40;73.80;;;;;;5051843;28;20059;-75
2022/01/09 02:24:10;;;;;;;1.90;1.58;;;4.40;74.40;;;;;;5049616;28;20424;-75
2022/01/09 02:26:36;;;;;;;2.17;1.92;;;4.40;73.90;;;;;;5051836;28;20029;-75
2022/01/09 02:29:02;;;;;;;2.55;2.17;;;4.40;74.10;;;;;;5043209;28;20053;-75
2022/01/09 02:31:28;;;;;;;1.83;1.73;;;4.50;74.00;;;;;;5050864;28;20032;-75
2022/01/09 02:33:53;;;;;;;2.30;1.98;;;4.40;73.90;;;;;;5051744;28;20025;-74
2022/01/09 02:36:19;;;;;;;1.75;1.65;;;4.40;74.20;;;;;;5051285;28;20098;-75
2022/01/09 02:38:45;;;;;;;2.00;1.80;;;4.40;74.30;;;;;;5050798;28;20111;-75
2022/01/09 02:41:10;;;;;;;2.67;1.52;;;4.40;74.40;;;;;;5049988;28;20032;-75
2022/01/09 02:43:36;;;;;;;1.92;1.60;;;4.50;74.30;;;;;;5049418;28;20083;-75
2022/01/09 02:48:34;;;;;;;1.80;1.70;;;4.50;74.50;;;;;;5072159;28;20074;-75
2022/01/09 02:51:05;;;;;;;2.10;1.60;;;4.50;74.50;;;;;;5055843;28;20127;-75
2022/01/09 02:53:35;;;;;;;1.83;1.73;;;4.50;74.40;;;;;;5052757;28;20100;-75
2022/01/09 02:56:03;;;;;;;2.33;1.30;;;4.50;74.50;;;;;;5054951;28;20029;-75
2022/01/09 02:58:29;;;;;;;1.85;1.40;;;4.60;74.60;;;;;;5055074;28;20108;-75
2022/01/09 03:00:55;;;;;;;1.98;1.20;;;4.60;74.70;;;;;;5053372;28;20529;-75
2022/01/09 03:03:20;;;;;;;1.42;1.23;;;4.60;74.60;;;;;;5054594;28;20029;-75
2022/01/09 03:05:46;;;;;;;1.38;1.27;;;4.60;74.60;;;;;;5055101;28;20412;-75
2022/01/09 03:08:12;;;;;;;1.42;1.30;;;4.60;74.60;;;;;;5054127;28;20135;-74
2022/01/09 03:10:38;;;;;;;1.55;1.23;;;4.60;74.60;;;;;;5053821;28;20048;-75
2022/01/09 03:13:06;;;;;;;1.30;1.20;;;4.60;74.50;;;;;;5066412;28;20110;-75
2022/01/09 03:15:32;;;;;;;1.35;1.08;;;4.60;74.60;;;;;;5054890;28;20527;-74
2022/01/09 03:17:58;;;;;;;1.27;1.00;;;4.70;74.70;;;;;;5054267;28;20029;-75
2022/01/09 03:20:25;;;;;;;1.30;1.20;;;4.70;74.50;;;;;;5054663;28;20017;-74
2022/01/09 03:22:51;;;;;;;2.33;1.20;;;4.70;74.60;;;;;;5054537;28;20037;-75
2022/01/09 03:25:18;;;;;;;1.65;1.10;;;4.80;74.40;;;;;;5054530;28;20438;-74
2022/01/09 03:27:45;;;;;;;1.65;1.45;;;4.70;74.30;;;;;;5054444;28;20378;-74
2022/01/09 03:30:12;;;;;;;1.20;1.10;;;4.80;74.60;;;;;;5054070;28;20037;-75
2022/01/09 03:32:39;;;;;;;1.65;1.20;;;4.80;74.50;;;;;;5054433;28;20389;-74
2022/01/09 03:35:07;;;;;;;0.98;0.98;;;4.80;74.40;;;;;;5048318;28;20029;-76
2022/01/09 03:37:33;;;;;;;1.30;1.20;;;4.90;74.80;;;;;;5057651;28;20051;-75
2022/01/09 03:39:58;;;;;;;3.25;1.30;;;4.90;74.50;;;;;;5055405;28;20603;-75
2022/01/09 03:42:24;;;;;;;1.27;1.08;;;4.90;74.30;;;;;;5054247;28;20100;-75
2022/01/09 03:44:50;;;;;;;2.13;1.10;;;5.00;74.50;;;;;;5054582;28;20029;-75
2022/01/09 03:47:16;;;;;;;1.45;1.35;;;5.00;74.40;;;;;;5053731;28;20051;-75
2022/01/09 03:49:41;;;;;;;1.30;1.20;;;5.00;74.00;;;;;;5054050;28;20499;-76
2022/01/09 03:52:07;;;;;;;1.20;1.10;;;5.10;74.10;;;;;;5057268;28;20036;-75
2022/01/09 03:54:36;;;;;;;1.38;1.20;;;5.10;74.00;;;;;;5056186;28;20036;-75
2022/01/09 03:57:02;;;;;;;1.15;1.05;;;5.10;74.00;;;;;;5054165;28;20460;-75
2022/01/09 03:59:28;;;;;;;1.73;1.17;;;5.10;73.80;;;;;;5053592;28;20048;-74
2022/01/09 04:01:54;;;;;;;1.13;1.10;;;5.20;73.90;;;;;;5054138;28;20523;-75
2022/01/09 04:04:20;;;;;;;1.83;1.05;;;5.20;74.60;;;;;;5043762;28;20025;-75
2022/01/09 04:06:49;;;;;;;2.88;1.23;;;5.20;73.90;;;;;;5048740;28;20037;-74
2022/01/09 04:09:28;;;;;;;1.15;0.90;;;5.40;74.00;;;;;;5051701;28;20044;-75
2022/01/09 04:12:03;;;;;;;3.75;0.88;;;5.20;73.80;;;;;;5053933;28;20029;-74
2022/01/09 04:14:29;;;;;;;0.82;0.80;;;5.20;73.70;;;;;;5052595;28;20124;-74
2022/01/09 04:16:55;;;;;;;0.75;0.75;;;5.30;73.70;;;;;;5052476;28;20060;-73
2022/01/09 04:19:21;;;;;;;0.60;0.60;;;5.30;73.70;;;;;;5053433;28;20078;-73
2022/01/09 04:21:47;;;;;;;1.02;0.80;;;5.30;73.60;;;;;;5052322;28;20029;-74
2022/01/09 04:24:12;;;;;;;1.35;0.70;;;5.30;73.50;;;;;;5057828;28;20021;-74
2022/01/09 04:26:38;;;;;;;1.40;0.80;;;5.30;73.60;;;;;;5053373;28;20036;-74
2022/01/09 04:29:04;;;;;;;0.80;0.80;;;5.30;73.50;;;;;;5052186;28;20041;-74
2022/01/09 04:31:31;;;;;;;0.60;0.60;;;5.30;73.50;;;;;;5052094;28;20033;-74
2022/01/09 04:33:56;;;;;;;2.05;0.80;;;5.30;73.60;;;;;;5053414;28;20074;-74
2022/01/09 04:36:23;;;;;;;0.82;0.80;;;5.40;73.80;;;;;;5053809;28;20099;-74
2022/01/09 04:38:49;;;;;;;0.73;0.73;;;5.40;73.60;;;;;;5051612;28;20557;-74
2022/01/09 04:41:15;;;;;;;0.70;0.70;;;5.40;73.60;;;;;;5051945;28;20163;-74
2022/01/09 04:43:43;;;;;;;1.52;0.80;;;5.40;73.40;;;;;;5052093;28;20027;-73
2022/01/09 04:46:09;;;;;;;1.15;0.70;;;5.40;73.40;;;;;;5053225;28;20029;-73
2022/01/09 04:48:35;;;;;;;0.70;0.70;;;5.40;73.50;;;;;;5052881;28;20028;-73
2022/01/09 04:51:01;;;;;;;0.95;0.73;;;5.40;73.40;;;;;;5061045;28;20090;-74
2022/01/09 04:53:26;;;;;;;1.35;1.10;;;5.40;73.20;;;;;;5071903;28;20021;-73
2022/01/09 04:55:52;;;;;;;1.13;0.90;;;5.40;73.40;;;;;;5058368;28;20028;-73
2022/01/09 04:58:18;;;;;;;2.17;0.88;;;5.40;73.40;;;;;;5052447;28;20075;-73
2022/01/09 05:00:44;;;;;;;1.08;0.88;;;5.40;73.50;;;;;;5051521;28;20055;-73
2022/01/09 05:03:12;;;;;;;1.77;0.80;;;5.40;73.40;;;;;;5052354;28;20039;-72
2022/01/09 05:05:38;;;;;;;1.63;0.80;;;5.50;73.50;;;;;;5050466;28;20064;-73
2022/01/09 05:08:04;;;;;;;1.45;0.90;;;5.50;73.50;;;;;;5069557;28;20380;-73
2022/01/09 05:10:29;;;;;;;1.20;1.10;;;5.50;73.50;;;;;;5062918;28;20112;-72
2022/01/09 05:12:55;;;;;;;1.63;1.27;;;5.50;73.50;;;;;;5053077;28;20108;-72
2022/01/09 05:15:22;;;;;;;1.25;0.90;;;5.50;73.40;;;;;;5051604;28;20021;-72
2022/01/09 05:17:50;;;;;;;2.03;0.85;;;5.50;73.50;;;;;;5051286;28;20490;-72
2022/01/09 05:20:16;;;;;;;4.15;0.80;;;5.50;73.40;;;;;;5053141;28;20037;-72
2022/01/09 05:22:42;;;;;;;1.17;1.00;;;5.50;73.30;;;;;;5051403;28;20025;-73
2022/01/09 05:25:08;;;;;;;2.22;0.75;;;5.50;73.50;;;;;;5050358;28;20444;-73
2022/01/09 05:27:35;;;;;;;0.90;0.80;;;5.50;73.50;;;;;;5047108;28;20028;-73
2022/01/09 05:30:01;;;;;;;1.52;0.70;;;5.50;73.50;;;;;;5051563;28;20052;-73
2022/01/09 05:32:26;;;;;;;0.60;0.60;;;5.50;73.50;;;;;;5051625;28;20124;-72
2022/01/09 05:34:52;;;;;;;1.02;0.60;;;5.50;73.50;;;;;;5056155;28;20032;-73
2022/01/09 05:37:18;;;;;;;1.17;0.70;;;5.50;73.70;;;;;;5061607;28;20028;-73
2022/01/09 05:39:44;;;;;;;0.88;0.80;;;5.50;73.70;;;;;;5047890;28;20033;-73
2022/01/09 05:42:12;;;;;;;0.95;0.73;;;5.50;73.70;;;;;;5050728;28;20102;-73
2022/01/09 05:44:37;;;;;;;1.45;0.73;;;5.50;73.60;;;;;;5052151;28;20064;-72
2022/01/09 05:47:03;;;;;;;2.22;0.93;;;5.50;73.60;;;;;;5051249;28;20103;-72
2022/01/09 05:49:29;;;;;;;1.35;0.98;;;5.50;73.60;;;;;;5051672;28;20390;-72
2022/01/09 05:51:55;;;;;;;1.40;0.75;;;5.50;73.50;;;;;;5051923;28;20035;-72
2022/01/09 05:54:21;;;;;;;2.92;0.77;;;5.50;73.70;;;;;;5052410;28;20029;-72
2022/01/09 05:56:47;;;;;;;0.93;0.80;;;5.60;73.50;;;;;;5052071;28;20140;-72
2022/01/09 05:59:13;;;;;;;1.42;0.90;;;5.50;73.60;;;;;;5051937;28;20060;-73
2022/01/09 06:01:38;;;;;;;1.45;0.70;;;5.50;73.60;;;;;;5050505;28;20103;-72
2022/01/09 06:04:05;;;;;;;1.55;0.52;;;5.50;73.90;;;;;;5056109;28;20024;-72
2022/01/09 06:06:31;;;;;;;0.50;0.50;;;5.50;73.90;;;;;;5066816;28;20449;-73
2022/01/09 06:08:57;;;;;;;0.40;0.40;;;5.50;73.90;;;;;;5057368;28;20050;-73
2022/01/09 06:11:23;;;;;;;0.40;0.40;;;5.50;73.70;;;;;;5064727;28;20564;-73
2022/01/09 06:13:48;;;;;;;0.52;0.50;;;5.50;73.70;;;;;;5051661;28;20025;-73
2022/01/09 06:16:14;;;;;;;0.40;0.40;;;5.50;73.80;;;;;;5052269;28;20124;-73
2022/01/09 06:18:40;;;;;;;0.40;0.40;;;5.50;73.70;;;;;;5053794;28;20046;-74
2022/01/09 06:21:05;;;;;;;0.50;0.50;;;5.50;73.50;;;;;;5053180;28;20017;-73
2022/01/09 06:23:31;;;;;;;0.50;0.50;;;5.50;73.50;;;;;;5050866;28;20031;-72
2022/01/09 06:25:57;;;;;;;0.43;0.43;;;5.50;73.50;;;;;;5051310;28;20025;-74
2022/01/09 06:28:23;;;;;;;0.43;0.43;;;5.50;73.40;;;;;;5058859;28;20049;-74
2022/01/09 06:30:49;;;;;;;0.50;0.50;;;5.50;73.50;;;;;;5062428;28;20052;-75
2022/01/09 06:33:15;;;;;;;0.60;0.60;;;5.40;73.40;;;;;;5055589;28;20029;-76
2022/01/09 06:35:42;;;;;;;0.45;0.45;;;5.40;73.30;;;;;;5055403;28;20099;-75
2022/01/09 06:38:08;;;;;;;0.50;0.50;;;5.60;73.40;;;;;;5055394;28;20032;-75
2022/01/09 06:40:34;;;;;;;0.50;0.50;;;5.40;73.30;;;;;;5055270;28;20473;-74
2022/01/09 06:43:00;;;;;;;0.50;0.50;;;5.40;73.40;;;;;;5063805;28;20126;-75
2022/01/09 06:45:27;;;;;;;0.40;0.40;;;5.40;73.20;;;;;;5067964;28;20040;-74
2022/01/09 06:47:54;;;;;;;0.40;0.40;;;5.40;73.40;;;;;;5053697;28;20032;-74
2022/01/09 06:50:21;;;;;;;0.50;0.50;;;5.30;73.30;;;;;;5055427;28;20481;-74
2022/01/09 06:52:47;;;;;;;1.05;0.50;;;5.30;73.30;;;;;;5055619;28;20470;-72
2022/01/09 06:55:13;;;;;;;0.40;0.40;;;5.30;73.30;;;;;;5053656;28;20428;-73
2022/01/09 06:57:39;;;;;;;0.40;0.40;;;5.20;73.20;;;;;;5061385;28;20028;-74
2022/01/09 07:00:06;;;;;;;0.40;0.40;;;5.20;73.30;;;;;;5059423;28;21716;-74
2022/01/09 07:02:32;;;;;;;0.50;0.50;;;5.20;73.30;;;;;;5053825;28;20108;-74
2022/01/09 07:04:57;;;;;;;0.50;0.50;;;5.20;73.30;;;;;;5040893;28;20104;-75
2022/01/09 07:07:23;;;;;;;0.68;0.47;;;5.20;73.50;;;;;;5053957;28;20411;-74
2022/01/09 07:09:48;;;;;;;1.17;1.00;;;5.10;73.40;;;;;;5054790;28;20044;-74
2022/01/09 07:12:14;;;;;;;0.70;0.68;;;5.20;73.60;;;;;;5054711;28;20030;-74
2022/01/09 07:14:40;;;;;;;0.50;0.50;;;5.10;73.60;;;;;;5055822;28;20033;-75
2022/01/09 07:17:06;;;;;;;0.80;0.60;;;5.10;73.50;;;;;;5054676;28;20029;-75
2022/01/09 07:19:31;;;;;;;1.48;0.60;;;5.00;73.70;;;;;;5055075;28;20025;-75
2022/01/09 07:21:57;;;;;;;0.50;0.50;;;5.00;73.90;;;;;;5054662;28;20051;-74
2022/01/09 07:24:23;;;;;;;0.63;0.60;;;5.00;73.90;;;;;;5054886;28;20021;-75
2022/01/09 07:26:48;;;;;;;0.50;0.50;;;5.00;73.90;;;;;;5057139;28;20173;-75
2022/01/09 07:29:14;;;;;;;0.60;0.60;;;5.00;73.90;;;;;;5055367;28;20110;-74
2022/01/09 07:31:39;;;;;;;0.77;0.73;;;5.00;74.00;;;;;;5058670;28;20029;-74
2022/01/09 07:34:05;;;;;;;1.00;0.60;;;5.00;74.00;;;;;;5054771;28;20380;-73
2022/01/09 07:36:31;;;;;;;2.05;0.70;;;5.00;74.20;;;;;;5053937;28;20024;-74
2022/01/09 07:38:56;;;;;;;2.40;0.88;;;5.00;74.10;;;;;;5052830;28;20033;-74
2022/01/09 07:41:22;;;;;;;1.00;0.82;;;5.10;74.10;;;;;;5049937;28;20032;-74
2022/01/09 07:43:48;;;;;;;1.65;0.95;;;5.10;74.10;;;;;;5052120;28;20021;-74
2022/01/09 07:46:13;;;;;;;2.28;1.58;;;5.10;74.20;;;;;;5052612;28;20079;-74
2022/01/09 07:48:39;;;;;;;0.90;0.80;;;5.10;74.20;;;;;;5054634;28;20033;-74
2022/01/09 07:51:05;;;;;;;1.20;1.02;;;5.10;74.10;;;;;;5052159;28;20071;-74
2022/01/09 07:53:31;;;;;;;1.15;0.82;;;5.20;74.50;;;;;;5054033;28;20036;-74
2022/01/09 07:55:57;;;;;;;1.00;0.75;;;5.20;74.40;;;;;;5055368;28;20033;-74
2022/01/09 07:58:22;;;;;;;1.33;0.70;;;5.20;74.20;;;;;;5074268;28;20103;-73
2022/01/09 08:00:48;;;;;;;1.45;0.90;;;5.20;74.10;;;;;;5068194;28;20061;-73
2022/01/09 08:03:14;;;;;;;1.15;0.73;;;5.20;74.10;;;;;;5052915;28;20021;-72
2022/01/09 08:05:40;;;;;;;3.45;1.70;;;5.20;74.30;;;;;;5041734;28;20032;-73
2022/01/09 08:08:06;;;;;;;3.45;1.30;;;5.20;74.10;;;;;;5054473;28;20025;-73
2022/01/09 08:10:32;;;;;;;2.85;1.20;;;5.30;74.30;;;;;;5052828;28;20047;-72
2022/01/09 08:13:00;;;;;;;1.25;0.80;;;5.30;74.10;;;;;;5053984;28;20032;-72
2022/01/09 08:15:29;;;;;;;3.00;0.80;;;5.30;74.00;;;;;;5053606;28;20028;-73
2022/01/09 08:17:55;;;;;;;2.25;1.10;;;5.60;74.20;;;;;;5053929;28;20029;-72
2022/01/09 08:20:21;;;;;;;1.70;1.17;;;5.40;74.00;;;;;;5053858;28;20021;-72
2022/01/09 08:22:47;;;;;;;1.10;1.00;;;5.40;74.00;;;;;;5051709;28;20047;-72
2022/01/09 08:25:15;;;;;;;1.77;0.88;;;5.40;73.90;;;;;;5054023;28;20098;-73
2022/01/09 08:27:43;;;;;;;2.90;0.93;;;5.40;73.80;;;;;;5054027;28;20090;-73
2022/01/09 08:30:09;;;;;;;2.38;0.70;;;5.40;73.60;;;;;;5052149;28;20114;-73
2022/01/09 08:32:35;;;;;;;1.00;0.70;;;5.50;73.70;;;;;;5051756;28;20025;-73
2022/01/09 08:35:02;;;;;;;1.90;1.05;;;5.50;73.70;;;;;;5053595;28;20049;-73
2022/01/09 08:37:28;;;;;;;2.08;0.80;;;5.50;73.60;;;;;;5052712;28;20048;-73
2022/01/09 08:39:53;;;;;;;2.65;1.30;;;5.50;73.40;;;;;;5053614;28;20053;-72
2022/01/09 08:42:19;;;;;;;5.47;1.40;;;5.50;73.30;;;;;;5053229;28;20029;-73
2022/01/09 08:44:45;;;;;;;3.30;1.15;;;5.50;73.30;;;;;;5051836;28;20036;-73
2022/01/09 08:47:11;;;;;;;3.13;1.10;;;5.50;73.20;;;;;;5053430;28;20021;-72
2022/01/09 08:49:36;;;;;;;4.47;1.20;;;5.50;73.10;;;;;;5051502;28;20075;-73
2022/01/09 08:52:03;;;;;;;4.20;1.23;;;5.60;72.90;;;;;;5052333;28;20021;-70
2022/01/09 08:54:30;;;;;;;3.53;1.20;;;5.60;72.90;;;;;;5053003;28;20369;-70
2022/01/09 08:56:56;;;;;;;2.35;1.10;;;5.60;72.80;;;;;;5052885;28;20037;-70
2022/01/09 08:59:21;;;;;;;4.38;1.35;;;5.60;72.70;;;;;;5053151;28;20067;-70
2022/01/09 09:01:47;;;;;;;6.55;1.33;;;5.60;72.50;;;;;;5053474;28;20060;-70
2022/01/09 09:04:14;;;;;;;6.10;1.50;;;5.60;72.40;;;;;;5043895;28;20030;-70
2022/01/09 09:06:40;;;;;;;6.25;1.30;;;5.70;72.40;;;;;;5050928;28;20029;-70
2022/01/09 09:09:07;;;;;;;3.40;1.15;;;5.70;72.30;;;;;;5051627;28;20059;-71
2022/01/09 09:11:33;;;;;;;4.72;1.55;;;5.70;72.10;;;;;;5052577;28;20036;-71
2022/01/09 09:13:59;;;;;;;6.22;1.45;;;5.70;72.10;;;;;;5053069;28;20044;-71
2022/01/09 09:16:25;;;;;;;5.25;1.55;;;5.70;72.10;;;;;;5057877;28;20028;-71
2022/01/09 09:18:50;;;;;;;6.13;1.60;;;5.80;72.00;;;;;;5071686;28;20017;-73
2022/01/09 09:21:16;;;;;;;4.75;1.50;;;5.80;71.90;;;;;;5054392;28;20444;-71
2022/01/09 09:23:42;;;;;;;7.13;1.50;;;5.80;71.70;;;;;;5050454;28;20029;-72
2022/01/09 09:26:09;;;;;;;8.27;1.42;;;5.90;71.70;;;;;;5057138;28;20031;-71
2022/01/09 09:28:35;;;;;;;10.27;1.65;;;5.90;71.60;;;;;;5052360;28;20148;-71
2022/01/09 09:31:00;;;;;;;8.82;1.45;;;5.90;71.20;;;;;;5057551;28;20112;-72
2022/01/09 09:33:26;;;;;;;6.18;1.85;;;5.90;71.10;;;;;;5059752;28;20120;-71
2022/01/09 09:35:52;;;;;;;4.93;1.40;;;5.90;70.90;;;;;;5060691;28;20445;-71
2022/01/09 09:38:18;;;;;;;6.15;1.65;;;5.90;71.10;;;;;;5054697;28;20021;-71
2022/01/09 09:40:43;;;;;;;7.00;1.65;;;6.00;71.00;;;;;;5064974;28;20105;-71
2022/01/09 09:43:09;;;;;;;8.40;1.33;;;6.00;71.10;;;;;;5059746;28;20035;-72
2022/01/09 09:45:35;;;;;;;4.60;1.77;;;6.00;70.70;;;;;;5045508;28;20067;-72
2022/01/09 09:48:00;;;;;;;8.77;1.55;;;6.00;70.70;;;;;;5050573;28;20025;-73
2022/01/09 09:50:26;;;;;;;6.43;1.50;;;6.00;70.50;;;;;;5050904;28;20045;-73
2022/01/09 09:52:52;;;;;;;12.43;1.63;;;6.00;70.00;;;;;;5064221;28;20029;-73
2022/01/09 09:55:18;;;;;;;7.18;1.80;;;6.00;70.10;;;;;;5061383;28;20036;-72
2022/01/09 09:57:45;;;;;;;5.65;1.25;;;6.00;69.80;;;;;;5050039;28;20044;-72
2022/01/09 10:00:17;;;;;;;5.43;1.70;;;6.00;69.70;;;;;;5051224;28;20028;-71
2022/01/09 10:02:48;;;;;;;7.18;1.63;;;6.00;69.50;;;;;;5041898;28;20545;-72
2022/01/09 10:05:16;;;;;;;6.00;1.40;;;6.00;69.00;;;;;;5073167;28;20395;-72
2022/01/09 10:07:43;;;;;;;8.52;2.17;;;6.00;69.30;;;;;;5061573;28;20401;-72
2022/01/09 10:10:15;;;;;;;8.90;1.52;;;6.00;69.00;;;;;;5054931;28;20041;-71
2022/01/09 10:12:44;;;;;;;5.45;1.65;;;6.00;69.10;;;;;;5034922;28;20021;-71
2022/01/09 10:15:14;;;;;;;8.52;2.80;;;6.10;69.30;;;;;;5046444;28;20167;-71
2022/01/09 10:17:48;;;;;;;7.82;1.42;;;6.10;69.30;;;;;;5048912;28;20049;-71
2022/01/09 10:20:23;;;;;;;6.05;1.85;;;6.10;69.20;;;;;;5054092;28;20033;-72
2022/01/09 10:22:53;;;;;;;8.13;1.45;;;6.10;69.30;;;;;;5059203;28;20063;-73
2022/01/09 10:25:32;;;;;;;12.35;3.70;;;6.10;69.30;;;;;;5053266;28;20477;-71
2022/01/09 10:28:09;;;;;;;12.25;3.38;;;6.20;69.10;;;;;;5054840;28;20037;-72
2022/01/09 10:30:44;;;;;;;7.10;1.98;;;6.20;69.00;;;;;;5053055;28;20366;-73
2022/01/09 10:33:20;;;;;;;7.10;1.80;;;6.30;69.10;;;;;;5048538;28;20086;-71
2022/01/09 10:35:48;;;;;;;5.53;1.98;;;6.30;68.70;;;;;;5050411;28;20037;-71
2022/01/09 10:38:27;;;;;;;7.68;2.22;;;6.30;68.90;;;;;;5052145;28;20025;-71
2022/01/09 10:41:00;;;;;;;7.05;1.95;;;6.40;67.80;;;;;;5036536;28;20033;-71
2022/01/09 10:43:37;;;;;;;12.35;1.88;;;6.40;68.50;;;;;;5053919;28;20389;-72
2022/01/09 10:46:03;;;;;;;10.80;2.08;;;6.40;68.60;;;;;;5057990;28;20035;-71
2022/01/09 10:48:32;;;;;;;10.32;2.60;;;6.40;68.60;;;;;;5054353;28;20029;-72
2022/01/09 10:50:59;;;;;;;9.88;1.75;;;6.50;69.30;;;;;;5059316;28;20473;-71
2022/01/09 10:53:32;;;;;;;10.50;1.73;;;6.50;68.30;;;;;;5048514;28;20428;-71
2022/01/09 10:56:07;;;;;;;6.57;1.60;;;6.50;68.50;;;;;;5044621;28;20428;-71
2022/01/09 10:58:36;;;;;;;10.13;3.30;;;6.50;68.50;;;;;;5069660;28;20425;-72
2022/01/09 11:01:16;;;;;;;12.25;2.00;;;6.50;68.70;;;;;;5052116;28;20128;-72
2022/01/09 11:03:54;;;;;;;7.75;1.90;;;6.50;68.70;;;;;;5041216;28;20104;-72
2022/01/09 11:06:22;;;;;;;8.77;2.63;;;6.60;68.90;;;;;;5036837;28;20347;-72
2022/01/09 11:08:49;;;;;;;7.00;1.70;;;6.60;68.80;;;;;;5053181;28;20036;-72
2022/01/09 11:11:23;;;;;;;4.70;1.40;;;6.60;68.90;;;;;;5046212;28;20036;-72
2022/01/09 11:13:51;;;;;;;9.32;1.70;;;6.60;69.10;;;;;;5050683;28;20021;-72
2022/01/09 11:16:32;;;;;;;5.47;1.80;;;6.70;69.30;;;;;;5050811;28;20052;-71
2022/01/09 11:19:03;;;;;;;8.50;2.20;;;6.70;69.30;;;;;;5047246;28;20477;-71
2022/01/09 11:21:29;;;;;;;7.15;1.60;;;6.80;69.40;;;;;;5036053;28;20067;-71
2022/01/09 11:24:08;;;;;;;4.78;1.55;;;6.90;69.70;;;;;;5037743;28;20025;-72
2022/01/09 11:26:52;;;;;;;7.35;1.40;;;7.00;69.60;;;;;;5049114;28;20425;-71
2022/01/09 11:29:39;;;;;;;5.38;1.60;;;7.10;69.10;;;;;;5052299;28;20128;-71
2022/01/09 11:32:37;;;;;;;5.65;1.65;;;7.30;68.70;;;;;;5042841;28;20033;-71
2022/01/09 11:35:06;;;;;;;7.97;2.05;;;7.30;68.40;;;;;;5034256;28;20132;-71
2022/01/09 11:37:55;;;;;;;5.47;1.70;;;7.30;68.10;;;;;;5051253;28;20032;-71
2022/01/09 11:40:29;;;;;;;8.68;2.67;;;7.30;68.10;;;;;;5052770;28;20024;-70
2022/01/09 11:43:15;;;;;;;6.57;2.53;;;7.20;68.00;;;;;;5054420;28;20053;-71
2022/01/09 11:45:57;;;;;;;5.70;1.95;;;7.10;67.60;;;;;;5053353;28;20059;-70
2022/01/09 11:48:43;;;;;;;9.02;2.30;;;7.10;68.30;;;;;;5033212;28;20021;-70
2022/01/09 11:51:09;;;;;;;5.78;1.80;;;7.00;68.20;;;;;;5062331;28;20033;-70
2022/01/09 11:53:56;;;;;;;4.63;1.63;;;7.00;68.60;;;;;;5054012;28;20032;-70
2022/01/09 11:56:50;;;;;;;8.52;2.10;;;7.00;68.70;;;;;;5059936;28;20021;-70
2022/01/09 11:59:32;;;;;;;6.10;1.75;;;7.10;69.10;;;;;;5064403;28;20036;-70
2022/01/09 12:02:06;;;;;;;8.43;2.50;;;7.20;69.40;;;;;;5059585;28;20024;-70
2022/01/09 12:04:35;;;;;;;10.82;2.80;;;7.30;69.40;;;;;;5048696;28;20022;-70
2022/01/09 12:07:04;;;;;;;8.57;1.98;;;7.40;69.30;;;;;;5042854;28;20432;-70
2022/01/09 12:09:35;;;;;;;4.95;1.73;;;7.40;68.80;;;;;;5053160;28;20029;-70
2022/01/09 12:12:12;;;;;;;7.50;1.83;;;7.50;68.50;;;;;;5047503;28;20029;-70
2022/01/09 12:14:56;;;;;;;5.97;1.60;;;7.40;67.80;;;;;;5057840;28;20127;-70
2022/01/09 12:17:21;;;;;;;6.03;1.43;;;7.30;67.90;;;;;;5053256;28;20017;-69
2022/01/09 12:20:13;;;;;;;5.95;1.73;;;7.20;67.80;;;;;;5052619;28;20025;-69
2022/01/09 12:22:46;;;;;;;5.95;2.28;;;7.00;67.90;;;;;;5053448;28;20473;-69
2022/01/09 12:25:28;;;;;;;12.63;3.13;;;7.00;68.30;;;;;;5048258;28;20045;-69
2022/01/09 12:28:14;;;;;;;12.10;3.47;;;6.90;68.80;;;;;;5044671;28;20615;-69
2022/01/09 12:30:44;;;;;;;6.88;2.53;;;6.80;69.20;;;;;;5055092;28;20044;-69
2022/01/09 12:33:20;;;;;;;7.45;2.53;;;6.80;69.80;;;;;;5055977;28;20099;-69
2022/01/09 12:35:55;;;;;;;5.82;2.10;;;6.90;70.40;;;;;;5053914;28;20538;-69
2022/01/09 12:38:22;;;;;;;9.75;2.85;;;7.00;70.50;;;;;;5051212;28;20063;-70
2022/01/09 12:40:55;;;;;;;7.93;3.58;;;7.20;70.60;;;;;;5051935;28;20032;-70
2022/01/09 12:43:25;;;;;;;4.28;2.42;;;7.30;70.50;;;;;;5052994;28;20036;-70
2022/01/09 12:45:52;;;;;;;6.03;1.88;;;7.50;70.30;;;;;;5052718;28;20474;-69
2022/01/09 12:48:27;;;;;;;5.60;1.63;;;7.60;69.30;;;;;;5052693;28;20032;-70
2022/01/09 12:50:54;;;;;;;3.50;1.73;;;7.70;68.80;;;;;;5055472;28;20032;-70
2022/01/09 12:53:29;;;;;;;5.38;2.20;;;7.60;68.80;;;;;;5052375;28;20029;-70
2022/01/09 12:56:02;;;;;;;8.60;3.13;;;7.70;68.70;;;;;;5052928;28;20091;-70
2022/01/09 12:58:31;;;;;;;8.57;3.83;;;7.70;68.30;;;;;;5052499;28;20032;-70
2022/01/09 13:00:58;;;;;;;3.85;1.73;;;7.80;68.80;;;;;;5053003;28;20084;-70
2022/01/09 13:03:30;;;;;;;3.72;1.60;;;7.80;69.10;;;;;;5048743;28;20036;-70